createdAt,value
2016-12-13T00:00:00.471Z,97.8
2016-12-13T00:01:09.313Z,97.8
2016-12-13T00:02:18.153Z,97.71
2016-12-13T00:03:26.985Z,97.71
2016-12-13T00:04:35.821Z,97.8
2016-12-13T00:05:44.655Z,97.71
2016-12-13T00:06:53.488Z,98.09
2016-12-13T00:08:02.326Z,98.09
2016-12-13T00:09:11.155Z,97.61
2016-12-13T00:10:20.026Z,97.9
2016-12-13T00:11:28.859Z,97.71
2016-12-13T00:12:37.700Z,97.99
2016-12-13T00:13:46.535Z,98.47
2016-12-13T00:14:55.368Z,98.47
2016-12-13T00:16:04.234Z,98.18
2016-12-13T00:17:13.068Z,98.09
2016-12-13T00:18:21.907Z,97.8
2016-12-13T00:19:30.737Z,97.99
2016-12-13T00:20:39.570Z,97.9
2016-12-13T00:21:48.409Z,97.33
2016-12-13T00:22:57.596Z,97.43
2016-12-13T00:24:06.430Z,97.71
2016-12-13T00:25:15.264Z,97.61
2016-12-13T00:26:24.101Z,98.65
2016-12-13T00:27:32.881Z,98.28
2016-12-13T00:28:41.573Z,98.75
2016-12-13T00:29:50.255Z,98.65
2016-12-13T00:30:58.936Z,98.47
2016-12-13T00:32:07.942Z,98.23
2016-12-13T00:33:16.631Z,97.48
2016-12-13T00:34:25.364Z,97.9
2016-12-13T00:35:34.052Z,97.29
2016-12-13T00:36:42.746Z,97.8
2016-12-13T00:37:51.427Z,97.61
2016-12-13T00:39:00.109Z,97.85
2016-12-13T00:40:08.794Z,97.19
2016-12-13T00:41:17.477Z,97.48
2016-12-13T00:42:26.167Z,97.1
2016-12-13T00:43:34.847Z,96.81
2016-12-13T00:44:43.530Z,97.76
2016-12-13T00:45:52.216Z,97.19
2016-12-13T00:47:00.904Z,96.91
2016-12-13T00:48:09.904Z,97.14
2016-12-13T00:49:18.592Z,97.57
2016-12-13T00:50:27.276Z,97.19
2016-12-13T00:51:35.961Z,97.76
2016-12-13T00:52:44.646Z,97.76
2016-12-13T00:53:53.331Z,97.48
2016-12-13T00:55:02.018Z,97.38
2016-12-13T00:56:10.707Z,97.57
2016-12-13T00:57:19.396Z,97.76
2016-12-13T00:58:28.079Z,98.04
2016-12-13T00:59:36.768Z,97.67
2016-12-13T01:00:45.454Z,97.76
2016-12-13T01:01:54.137Z,97.38
2016-12-13T01:03:02.819Z,97.19
2016-12-13T01:04:11.506Z,97.67
2016-12-13T01:05:20.192Z,98.04
2016-12-13T01:06:28.880Z,97.19
2016-12-13T01:07:37.568Z,97.76
2016-12-13T01:08:46.251Z,98.04
2016-12-13T01:09:54.937Z,97.76
2016-12-13T01:11:03.623Z,97.76
2016-12-13T01:12:12.307Z,97.85
2016-12-13T01:13:20.991Z,97.48
2016-12-13T01:14:29.681Z,97.1
2016-12-13T01:15:38.363Z,97.19
2016-12-13T01:16:47.049Z,97
2016-12-13T01:17:55.735Z,96.53
2016-12-13T01:19:04.458Z,96.34
2016-12-13T01:20:13.138Z,96.44
2016-12-13T01:21:21.824Z,96.15
2016-12-13T01:22:30.534Z,96.53
2016-12-13T01:23:39.224Z,96.44
2016-12-13T01:24:47.904Z,96.15
2016-12-13T01:25:56.593Z,97
2016-12-13T01:27:05.279Z,96.53
2016-12-13T01:28:13.960Z,96.25
2016-12-13T01:29:22.641Z,96.63
2016-12-13T01:30:31.329Z,96.44
2016-12-13T01:31:40.012Z,96.15
2016-12-13T01:32:48.693Z,96.25
2016-12-13T01:33:57.374Z,95.97
2016-12-13T01:35:06.058Z,96.63
2016-12-13T01:36:14.739Z,96.63
2016-12-13T01:37:23.422Z,96.44
2016-12-13T01:38:32.108Z,96.25
2016-12-13T01:39:40.793Z,96.15
2016-12-13T01:40:49.476Z,96.53
2016-12-13T01:41:58.503Z,97
2016-12-13T01:43:07.184Z,96.91
2016-12-13T01:44:15.871Z,96.63
2016-12-13T01:45:24.557Z,97
2016-12-13T01:46:33.244Z,96.72
2016-12-13T01:47:41.928Z,96.34
2016-12-13T01:48:50.613Z,96.15
2016-12-13T01:49:59.298Z,96.44
2016-12-13T01:51:07.985Z,96.53
2016-12-13T01:52:16.670Z,96.25
2016-12-13T01:53:25.357Z,96.63
2016-12-13T01:54:34.040Z,96.44
2016-12-13T01:55:42.728Z,96.63
2016-12-13T01:56:51.414Z,96.34
2016-12-13T01:58:00.096Z,96.25
2016-12-13T01:59:08.783Z,97.38
2016-12-13T02:00:17.471Z,96.91
2016-12-13T02:01:26.157Z,97.1
2016-12-13T02:02:34.842Z,97.48
2016-12-13T02:03:43.526Z,97.76
2016-12-13T02:04:52.212Z,97.38
2016-12-13T02:06:00.901Z,97.19
2016-12-13T02:07:09.582Z,97.19
2016-12-13T02:08:18.267Z,97.67
2016-12-13T02:09:26.948Z,97
2016-12-13T02:10:35.635Z,97.1
2016-12-13T02:11:44.322Z,97.48
2016-12-13T02:12:53.005Z,97.38
2016-12-13T02:14:01.691Z,97.76
2016-12-13T02:15:10.690Z,97.29
2016-12-13T02:16:19.389Z,97.1
2016-12-13T02:17:28.075Z,97
2016-12-13T02:18:36.763Z,97.29
2016-12-13T02:19:45.447Z,97.48
2016-12-13T02:20:54.136Z,97.95
2016-12-13T02:22:03.139Z,97.67
2016-12-13T02:23:11.826Z,97.76
2016-12-13T02:24:20.514Z,98.14
2016-12-13T02:25:29.193Z,97.85
2016-12-13T02:26:37.879Z,98.14
2016-12-13T02:27:46.566Z,98.14
2016-12-13T02:28:55.255Z,97.76
2016-12-13T02:30:03.942Z,97.57
2016-12-13T02:31:12.623Z,98.14
2016-12-13T02:32:21.308Z,97.85
2016-12-13T02:33:29.994Z,98.14
2016-12-13T02:34:38.681Z,98.14
2016-12-13T02:35:47.389Z,98.14
2016-12-13T02:36:56.104Z,98.14
2016-12-13T02:38:04.788Z,97.76
2016-12-13T02:39:13.471Z,97.67
2016-12-13T02:40:22.162Z,97.95
2016-12-13T02:41:30.847Z,98.04
2016-12-13T02:42:39.536Z,97.76
2016-12-13T02:43:48.228Z,97.95
2016-12-13T02:44:56.918Z,97.85
2016-12-13T02:46:05.605Z,98.04
2016-12-13T02:47:14.291Z,98.52
2016-12-13T02:48:22.972Z,98.71
2016-12-13T02:49:31.658Z,99.08
2016-12-13T02:50:40.342Z,98.71
2016-12-13T02:51:49.030Z,98.71
2016-12-13T02:52:57.716Z,99.18
2016-12-13T02:54:06.401Z,98.71
2016-12-13T02:55:15.405Z,99.93
2016-12-13T02:56:24.088Z,99.46
2016-12-13T02:57:32.789Z,99.27
2016-12-13T02:58:41.477Z,99.08
2016-12-13T02:59:50.164Z,99.27
2016-12-13T03:00:58.850Z,98.99
2016-12-13T03:02:07.538Z,98.9
2016-12-13T03:03:16.593Z,98.99
2016-12-13T03:04:25.303Z,98.99
2016-12-13T03:05:33.996Z,99.37
2016-12-13T03:06:42.685Z,99.46
2016-12-13T03:07:51.373Z,99.84
2016-12-13T03:09:00.207Z,99.46
2016-12-13T03:10:08.893Z,99.08
2016-12-13T03:11:17.579Z,99.18
2016-12-13T03:12:26.308Z,98.9
2016-12-13T03:13:34.994Z,98.61
2016-12-13T03:14:43.682Z,98.8
2016-12-13T03:15:52.368Z,98.52
2016-12-13T03:17:01.070Z,98.9
2016-12-13T03:18:09.757Z,98.71
2016-12-13T03:19:18.442Z,98.61
2016-12-13T03:20:27.153Z,98.71
2016-12-13T03:21:35.840Z,99.18
2016-12-13T03:22:44.525Z,99.18
2016-12-13T03:23:53.211Z,99.37
2016-12-13T03:25:01.933Z,98.8
2016-12-13T03:26:10.619Z,98.99
2016-12-13T03:27:19.305Z,99.08
2016-12-13T03:28:27.996Z,99.27
2016-12-13T03:29:36.677Z,99.27
2016-12-13T03:30:45.362Z,99.27
2016-12-13T03:31:54.045Z,99.46
2016-12-13T03:33:02.732Z,99.84
2016-12-13T03:34:11.419Z,99.93
2016-12-13T03:35:20.108Z,99.99
2016-12-13T03:36:28.829Z,99.55
2016-12-13T03:37:37.518Z,99.93
2016-12-13T03:38:46.208Z,99.74
2016-12-13T03:39:54.888Z,99.74
2016-12-13T03:41:03.581Z,99.74
2016-12-13T03:42:12.265Z,99.74
2016-12-13T03:43:20.954Z,99.74
2016-12-13T03:44:29.644Z,99.65
2016-12-13T03:45:38.332Z,99.84
2016-12-13T03:46:47.020Z,99.55
2016-12-13T03:47:56.020Z,99.93
2016-12-13T03:49:04.711Z,99.6
2016-12-13T03:50:13.389Z,99.98
2016-12-13T03:51:22.388Z,99.99
2016-12-13T03:52:31.072Z,99.99
2016-12-13T03:53:39.767Z,99.99
2016-12-13T03:54:48.453Z,99.88
2016-12-13T03:55:57.169Z,99.51
2016-12-13T03:57:05.888Z,99.51
2016-12-13T03:58:14.573Z,99.88
2016-12-13T03:59:23.256Z,99.98
2016-12-13T04:00:31.942Z,99.7
2016-12-13T04:01:40.629Z,99.6
2016-12-13T04:02:49.331Z,99.6
2016-12-13T04:03:58.018Z,99.32
2016-12-13T04:05:06.704Z,99.6
2016-12-13T04:06:15.401Z,99.6
2016-12-13T04:07:24.088Z,99.41
2016-12-13T04:08:32.777Z,99.41
2016-12-13T04:09:41.466Z,99.13
2016-12-13T04:10:50.154Z,99.79
2016-12-13T04:11:58.838Z,99.99
2016-12-13T04:13:07.524Z,99.22
2016-12-13T04:14:16.207Z,99.22
2016-12-13T04:15:24.890Z,99.6
2016-12-13T04:16:33.576Z,99.88
2016-12-13T04:17:42.261Z,99.88
2016-12-13T04:18:50.953Z,99.88
2016-12-13T04:19:59.644Z,98.94
2016-12-13T04:21:08.325Z,99.04
2016-12-13T04:22:17.014Z,99.79
2016-12-13T04:23:25.701Z,99.32
2016-12-13T04:24:34.389Z,99.51
2016-12-13T04:25:43.072Z,99.6
2016-12-13T04:26:51.784Z,99.41
2016-12-13T04:28:00.473Z,99.41
2016-12-13T04:29:09.164Z,99.6
2016-12-13T04:30:17.848Z,99.7
2016-12-13T04:31:26.533Z,99.99
2016-12-13T04:32:35.221Z,99.88
2016-12-13T04:33:43.909Z,99.79
2016-12-13T04:34:52.598Z,99.88
2016-12-13T04:36:01.288Z,99.79
2016-12-13T04:37:09.975Z,99.98
2016-12-13T04:38:18.664Z,99.99
2016-12-13T04:39:27.346Z,99.99
2016-12-13T04:40:36.033Z,99.98
2016-12-13T04:41:44.728Z,99.88
2016-12-13T04:42:53.411Z,99.6
2016-12-13T04:44:02.097Z,99.88
2016-12-13T04:45:10.811Z,99.6
2016-12-13T04:46:19.496Z,99.99
2016-12-13T04:47:28.188Z,99.99
2016-12-13T04:48:36.878Z,99.99
2016-12-13T04:49:45.558Z,99.99
2016-12-13T04:50:54.252Z,99.99
2016-12-13T04:52:02.937Z,99.88
2016-12-13T04:53:11.627Z,99.79
2016-12-13T04:54:20.319Z,99.6
2016-12-13T04:55:29.005Z,99.88
2016-12-13T04:56:37.692Z,99.6
2016-12-13T04:57:46.375Z,99.51
2016-12-13T04:58:55.094Z,99.88
2016-12-13T05:00:03.789Z,99.99
2016-12-13T05:01:12.480Z,99.99
2016-12-13T05:02:21.164Z,99.99
2016-12-13T05:03:29.854Z,99.99
2016-12-13T05:04:38.570Z,99.99
2016-12-13T05:05:47.576Z,99.99
2016-12-13T05:06:56.286Z,99.99
2016-12-13T05:08:04.974Z,99.99
2016-12-13T05:09:13.664Z,99.99
2016-12-13T05:10:22.349Z,99.99
2016-12-13T05:11:31.032Z,99.99
2016-12-13T05:12:39.716Z,99.99
2016-12-13T05:13:48.410Z,99.99
2016-12-13T05:14:57.095Z,99.99
2016-12-13T05:16:05.782Z,99.99
2016-12-13T05:17:14.472Z,99.99
2016-12-13T05:18:23.160Z,99.99
2016-12-13T05:19:31.847Z,99.99
2016-12-13T05:20:40.584Z,99.99
2016-12-13T05:21:49.271Z,99.99
2016-12-13T05:22:57.957Z,99.99
2016-12-13T05:24:06.643Z,99.99
2016-12-13T05:25:15.342Z,99.99
2016-12-13T05:26:24.026Z,99.99
2016-12-13T05:27:32.714Z,99.99
2016-12-13T05:28:41.399Z,99.99
2016-12-13T05:29:50.088Z,99.99
2016-12-13T05:30:58.773Z,99.99
2016-12-13T05:32:07.466Z,99.99
2016-12-13T05:33:16.156Z,99.99
2016-12-13T05:34:24.845Z,99.99
2016-12-13T05:35:33.531Z,99.99
2016-12-13T05:36:42.219Z,99.99
2016-12-13T05:37:50.912Z,99.99
2016-12-13T05:38:59.604Z,99.99
2016-12-13T05:40:08.296Z,99.99
2016-12-13T05:41:16.984Z,99.88
2016-12-13T05:42:25.669Z,99.99
2016-12-13T05:43:34.352Z,99.99
2016-12-13T05:44:43.048Z,99.99
2016-12-13T05:45:51.741Z,99.99
2016-12-13T05:47:00.427Z,99.99
2016-12-13T05:48:09.430Z,99.99
2016-12-13T05:49:18.120Z,99.99
2016-12-13T05:50:26.806Z,99.99
2016-12-13T05:51:35.490Z,99.99
2016-12-13T05:52:44.179Z,99.99
2016-12-13T05:53:52.871Z,99.99
2016-12-13T05:55:01.608Z,99.79
2016-12-13T05:56:10.291Z,99.6
2016-12-13T05:57:18.980Z,99.32
2016-12-13T05:58:27.697Z,99.6
2016-12-13T05:59:36.389Z,99.51
2016-12-13T06:00:45.121Z,99.99
2016-12-13T06:01:53.809Z,99.99
2016-12-13T06:03:02.498Z,99.99
2016-12-13T06:04:11.499Z,99.99
2016-12-13T06:05:20.186Z,99.99
2016-12-13T06:06:28.871Z,99.79
2016-12-13T06:07:37.554Z,99.88
2016-12-13T06:08:46.242Z,99.88
2016-12-13T06:09:54.928Z,99.51
2016-12-13T06:11:03.614Z,99.7
2016-12-13T06:12:12.303Z,98.94
2016-12-13T06:13:20.990Z,99.41
2016-12-13T06:14:29.683Z,99.04
2016-12-13T06:15:38.369Z,99.41
2016-12-13T06:16:47.053Z,99.6
2016-12-13T06:17:55.739Z,99.51
2016-12-13T06:19:04.746Z,99.22
2016-12-13T06:20:13.441Z,99.37
2016-12-13T06:21:22.128Z,99.22
2016-12-13T06:22:30.841Z,99.13
2016-12-13T06:23:39.533Z,99.22
2016-12-13T06:24:48.223Z,99.13
2016-12-13T06:25:56.904Z,99.13
2016-12-13T06:27:05.593Z,99.41
2016-12-13T06:28:14.282Z,99.32
2016-12-13T06:29:22.972Z,99.6
2016-12-13T06:30:31.658Z,99.32
2016-12-13T06:31:40.342Z,99.51
2016-12-13T06:32:49.033Z,99.32
2016-12-13T06:33:57.724Z,98.94
2016-12-13T06:35:06.410Z,99.7
2016-12-13T06:36:15.098Z,99.41
2016-12-13T06:37:23.788Z,99.51
2016-12-13T06:38:32.489Z,99.22
2016-12-13T06:39:41.172Z,99.22
2016-12-13T06:40:49.858Z,98.94
2016-12-13T06:41:58.542Z,99.04
2016-12-13T06:43:07.227Z,99.04
2016-12-13T06:44:15.920Z,98.94
2016-12-13T06:45:24.606Z,99.22
2016-12-13T06:46:33.291Z,99.04
2016-12-13T06:47:41.977Z,99.22
2016-12-13T06:48:50.769Z,99.32
2016-12-13T06:49:59.550Z,99.88
2016-12-13T06:51:08.253Z,99.51
2016-12-13T06:52:16.951Z,99.13
2016-12-13T06:53:25.633Z,99.32
2016-12-13T06:54:34.320Z,99.88
2016-12-13T06:55:43.011Z,99.22
2016-12-13T06:56:51.697Z,99.41
2016-12-13T06:58:00.384Z,99.79
2016-12-13T06:59:09.070Z,99.32
2016-12-13T07:00:17.758Z,99.7
2016-12-13T07:01:26.451Z,99.13
2016-12-13T07:02:35.141Z,99.51
2016-12-13T07:03:43.829Z,99.13
2016-12-13T07:04:52.516Z,99.32
2016-12-13T07:06:01.207Z,99.99
2016-12-13T07:07:10.207Z,99.32
2016-12-13T07:08:18.896Z,99.22
2016-12-13T07:09:27.588Z,99.88
2016-12-13T07:10:36.275Z,99.7
2016-12-13T07:11:44.960Z,99.7
2016-12-13T07:12:53.653Z,99.32
2016-12-13T07:14:02.344Z,99.6
2016-12-13T07:15:11.025Z,99.88
2016-12-13T07:16:19.712Z,99.88
2016-12-13T07:17:28.712Z,99.79
2016-12-13T07:18:37.405Z,99.88
2016-12-13T07:19:46.094Z,99.98
2016-12-13T07:20:54.775Z,99.99
2016-12-13T07:22:03.462Z,99.6
2016-12-13T07:23:12.147Z,99.51
2016-12-13T07:24:20.832Z,99.98
2016-12-13T07:25:29.516Z,99.98
2016-12-13T07:26:38.211Z,99.88
2016-12-13T07:27:46.899Z,98.85
2016-12-13T07:28:55.616Z,98.94
2016-12-13T07:30:04.306Z,99.32
2016-12-13T07:31:12.991Z,98.94
2016-12-13T07:32:21.677Z,99.41
2016-12-13T07:33:30.365Z,98.94
2016-12-13T07:34:39.060Z,99.41
2016-12-13T07:35:47.749Z,99.99
2016-12-13T07:36:56.445Z,99.88
2016-12-13T07:38:05.133Z,99.7
2016-12-13T07:39:13.816Z,99.88
2016-12-13T07:40:22.506Z,99.99
2016-12-13T07:41:31.199Z,99.6
2016-12-13T07:42:39.882Z,99.51
2016-12-13T07:43:48.897Z,99.41
2016-12-13T07:44:57.586Z,99.6
2016-12-13T07:46:06.275Z,99.98
2016-12-13T07:47:14.961Z,99.6
2016-12-13T07:48:23.648Z,99.99
2016-12-13T07:49:32.339Z,99.79
2016-12-13T07:50:41.026Z,99.99
2016-12-13T07:51:49.718Z,99.99
2016-12-13T07:52:58.408Z,99.99
2016-12-13T07:54:07.410Z,99.99
2016-12-13T07:55:16.104Z,99.79
2016-12-13T07:56:24.789Z,99.6
2016-12-13T07:57:33.475Z,99.99
2016-12-13T07:58:42.161Z,99.88
2016-12-13T07:59:50.854Z,99.6
2016-12-13T08:00:59.540Z,99.51
2016-12-13T08:02:08.228Z,99.99
2016-12-13T08:03:16.915Z,99.88
2016-12-13T08:04:25.603Z,98.94
2016-12-13T08:05:34.290Z,99.6
2016-12-13T08:06:42.978Z,99.98
2016-12-13T08:07:51.662Z,99.79
2016-12-13T08:09:00.351Z,99.7
2016-12-13T08:10:09.030Z,99.41
2016-12-13T08:11:17.715Z,99.79
2016-12-13T08:12:26.456Z,99.88
2016-12-13T08:13:35.141Z,99.98
2016-12-13T08:14:43.829Z,99.7
2016-12-13T08:15:52.513Z,99.6
2016-12-13T08:17:01.199Z,99.7
2016-12-13T08:18:09.884Z,99.88
2016-12-13T08:19:18.573Z,99.41
2016-12-13T08:20:27.275Z,99.88
2016-12-13T08:21:36.007Z,99.98
2016-12-13T08:22:44.698Z,99.51
2016-12-13T08:23:53.385Z,99.99
2016-12-13T08:25:02.071Z,99.79
2016-12-13T08:26:10.762Z,99.99
2016-12-13T08:27:19.447Z,99.99
2016-12-13T08:28:28.143Z,99.99
2016-12-13T08:29:36.831Z,99.41
2016-12-13T08:30:45.511Z,99.6
2016-12-13T08:31:54.200Z,99.6
2016-12-13T08:33:02.895Z,99.94
2016-12-13T08:34:11.576Z,99.22
2016-12-13T08:35:20.264Z,99.6
2016-12-13T08:36:28.946Z,99.88
2016-12-13T08:37:37.635Z,99.41
2016-12-13T08:38:46.349Z,99.6
2016-12-13T08:39:55.038Z,99.98
2016-12-13T08:41:04.039Z,99.88
2016-12-13T08:42:12.722Z,99.6
2016-12-13T08:43:21.410Z,99.99
2016-12-13T08:44:30.092Z,99.99
2016-12-13T08:45:38.775Z,99.99
2016-12-13T08:46:47.463Z,99.99
2016-12-13T08:47:56.152Z,99.99
2016-12-13T08:49:04.838Z,99.99
2016-12-13T08:50:13.524Z,99.99
2016-12-13T08:51:22.227Z,99.99
2016-12-13T08:52:30.914Z,99.99
2016-12-13T08:53:39.612Z,99.99
2016-12-13T08:54:48.296Z,99.99
2016-12-13T08:55:56.981Z,99.99
2016-12-13T08:57:05.663Z,99.99
2016-12-13T08:58:14.750Z,99.99
2016-12-13T08:59:23.436Z,99.99
2016-12-13T09:00:32.121Z,99.99
2016-12-13T09:01:40.817Z,99.99
2016-12-13T09:02:49.506Z,99.99
2016-12-13T09:03:58.190Z,99.99
2016-12-13T09:05:06.879Z,99.99
2016-12-13T09:06:15.562Z,99.99
2016-12-13T09:07:24.560Z,99.99
2016-12-13T09:08:33.249Z,99.99
2016-12-13T09:09:41.985Z,99.99
2016-12-13T09:10:50.670Z,99.99
2016-12-13T09:11:59.353Z,99.99
2016-12-13T09:13:08.040Z,99.99
2016-12-13T09:14:16.728Z,99.99
2016-12-13T09:15:25.501Z,99.99
2016-12-13T09:16:34.186Z,99.99
2016-12-13T09:17:42.872Z,99.99
2016-12-13T09:18:51.580Z,99.99
2016-12-13T09:20:00.261Z,99.99
2016-12-13T09:21:09.105Z,99.99
2016-12-13T09:22:17.809Z,99.99
2016-12-13T09:23:26.493Z,99.99
2016-12-13T09:24:35.177Z,99.99
2016-12-13T09:25:43.861Z,99.99
2016-12-13T09:26:52.603Z,99.99
2016-12-13T09:28:01.291Z,99.99
2016-12-13T09:29:09.980Z,99.99
2016-12-13T09:30:18.661Z,99.99
2016-12-13T09:31:27.350Z,99.99
2016-12-13T09:32:36.084Z,99.99
2016-12-13T09:33:44.770Z,99.99
2016-12-13T09:34:53.454Z,99.99
2016-12-13T09:36:02.144Z,99.99
2016-12-13T09:37:10.832Z,99.99
2016-12-13T09:38:19.565Z,99.99
2016-12-13T09:39:28.252Z,99.99
2016-12-13T09:40:36.937Z,99.99
2016-12-13T09:41:45.623Z,99.99
2016-12-13T09:42:54.307Z,99.99
2016-12-13T09:44:03.047Z,99.99
2016-12-13T09:45:11.734Z,99.99
2016-12-13T09:46:20.415Z,99.99
2016-12-13T09:47:29.107Z,99.99
2016-12-13T09:48:37.790Z,99.99
2016-12-13T09:49:46.524Z,99.79
2016-12-13T09:50:55.211Z,99.79
2016-12-13T09:52:03.893Z,99.99
2016-12-13T09:53:12.579Z,99.98
2016-12-13T09:54:21.265Z,99.88
2016-12-13T09:55:30.002Z,99.79
2016-12-13T09:56:38.691Z,99.7
2016-12-13T09:57:47.375Z,99.51
2016-12-13T09:58:56.067Z,99.88
2016-12-13T10:00:04.757Z,99.88
2016-12-13T10:01:13.487Z,99.88
2016-12-13T10:02:22.890Z,99.6
2016-12-13T10:03:31.576Z,99.79
2016-12-13T10:04:40.257Z,99.04
2016-12-13T10:05:48.941Z,99.32
2016-12-13T10:06:57.681Z,99.6
2016-12-13T10:08:06.370Z,99.32
2016-12-13T10:09:15.052Z,99.51
2016-12-13T10:10:23.742Z,99.04
2016-12-13T10:11:32.428Z,99.22
2016-12-13T10:12:41.170Z,99.41
2016-12-13T10:13:49.861Z,99.46
2016-12-13T10:14:58.548Z,99.46
2016-12-13T10:16:07.233Z,99.74
2016-12-13T10:17:15.922Z,99.08
2016-12-13T10:18:24.660Z,99.55
2016-12-13T10:19:33.346Z,99.84
2016-12-13T10:20:42.032Z,99.55
2016-12-13T10:21:50.719Z,99.27
2016-12-13T10:22:59.410Z,98.8
2016-12-13T10:24:08.461Z,98.23
2016-12-13T10:25:17.149Z,97.81
2016-12-13T10:26:25.836Z,97.85
2016-12-13T10:27:34.518Z,97.76
2016-12-13T10:28:43.199Z,97.85
2016-12-13T10:29:51.982Z,97.85
2016-12-13T10:31:00.664Z,97.76
2016-12-13T10:32:09.399Z,97.48
2016-12-13T10:33:18.210Z,97.38
2016-12-13T10:34:26.894Z,97.81
2016-12-13T10:35:35.626Z,97.72
2016-12-13T10:36:44.316Z,97.43
2016-12-13T10:37:52.998Z,97.91
2016-12-13T10:39:01.692Z,98.8
2016-12-13T10:40:10.376Z,98.42
2016-12-13T10:41:19.059Z,98.42
2016-12-13T10:42:27.742Z,98.8
2016-12-13T10:43:36.429Z,99.99
2016-12-13T10:44:45.109Z,99.99
2016-12-13T10:45:54.109Z,99.99
2016-12-13T10:47:02.790Z,99.99
2016-12-13T10:48:11.474Z,99.99
2016-12-13T10:49:20.161Z,99.99
2016-12-13T10:50:28.848Z,99.99
2016-12-13T10:51:37.532Z,99.74
2016-12-13T10:52:46.214Z,99.84
2016-12-13T10:53:54.906Z,99.99
2016-12-13T10:55:03.908Z,99.46
2016-12-13T10:56:12.593Z,99.74
2016-12-13T10:57:21.278Z,99.74
2016-12-13T10:58:29.965Z,99.99
2016-12-13T10:59:38.648Z,99.99
2016-12-13T11:00:47.360Z,99.93
2016-12-13T11:01:56.053Z,99.99
2016-12-13T11:03:04.747Z,99.99
2016-12-13T11:04:13.433Z,99.99
2016-12-13T11:05:22.119Z,99.99
2016-12-13T11:06:30.804Z,99.99
2016-12-13T11:07:39.494Z,99.99
2016-12-13T11:08:48.187Z,99.99
2016-12-13T11:09:56.881Z,99.99
2016-12-13T11:11:05.572Z,99.99
2016-12-13T11:12:14.275Z,99.99
2016-12-13T11:13:22.966Z,99.99
2016-12-13T11:14:31.646Z,99.99
2016-12-13T11:15:40.327Z,99.99
2016-12-13T11:16:49.014Z,99.99
2016-12-13T11:17:57.702Z,99.99
2016-12-13T11:19:06.385Z,99.99
2016-12-13T11:20:15.090Z,99.99
2016-12-13T11:21:23.795Z,99.99
2016-12-13T11:22:32.503Z,99.99
2016-12-13T11:23:41.188Z,99.99
2016-12-13T11:24:49.874Z,99.99
2016-12-13T11:25:58.558Z,99.99
2016-12-13T11:27:07.248Z,99.99
2016-12-13T11:28:15.932Z,99.99
2016-12-13T11:29:24.619Z,99.99
2016-12-13T11:30:33.316Z,99.99
2016-12-13T11:31:42.003Z,99.99
2016-12-13T11:32:50.693Z,99.99
2016-12-13T11:33:59.378Z,99.99
2016-12-13T11:35:08.062Z,99.99
2016-12-13T11:36:16.749Z,99.99
2016-12-13T11:37:25.435Z,99.99
2016-12-13T11:38:34.122Z,99.99
2016-12-13T11:39:42.815Z,99.99
2016-12-13T11:40:51.510Z,99.99
2016-12-13T11:42:00.194Z,99.99
2016-12-13T11:43:08.881Z,99.88
2016-12-13T11:44:17.563Z,99.41
2016-12-13T11:45:26.251Z,99.13
2016-12-13T11:46:34.951Z,98.61
2016-12-13T11:47:43.644Z,97.48
2016-12-13T11:48:52.355Z,95.4
2016-12-13T11:50:01.049Z,94.65
2016-12-13T11:51:09.738Z,95.21
2016-12-13T11:52:18.433Z,95.12
2016-12-13T11:53:27.443Z,94.98
2016-12-13T11:54:36.129Z,95.54
2016-12-13T11:55:44.819Z,95.54
2016-12-13T11:56:53.506Z,95.92
2016-12-13T11:58:02.203Z,96.68
2016-12-13T11:59:11.224Z,97.05
2016-12-13T12:00:19.917Z,97.05
2016-12-13T12:01:28.603Z,97.24
2016-12-13T12:02:37.292Z,97.15
2016-12-13T12:03:45.982Z,97.34
2016-12-13T12:04:54.671Z,98
2016-12-13T12:06:03.355Z,98
2016-12-13T12:07:12.046Z,97.81
2016-12-13T12:08:20.756Z,97.81
2016-12-13T12:09:29.444Z,97.91
2016-12-13T12:10:38.439Z,97.91
2016-12-13T12:11:47.126Z,98.1
2016-12-13T12:12:55.848Z,97.81
2016-12-13T12:14:04.540Z,97.15
2016-12-13T12:15:13.234Z,96.3
2016-12-13T12:16:21.919Z,96.63
2016-12-13T12:17:30.607Z,97.57
2016-12-13T12:18:39.321Z,97.76
2016-12-13T12:19:48.029Z,97
2016-12-13T12:20:56.712Z,97.1
2016-12-13T12:22:05.398Z,97.67
2016-12-13T12:23:14.084Z,98.61
2016-12-13T12:24:22.775Z,98.52
2016-12-13T12:25:31.468Z,98.47
2016-12-13T12:26:40.150Z,99.13
2016-12-13T12:27:48.837Z,99.32
2016-12-13T12:28:57.525Z,99.22
2016-12-13T12:30:06.214Z,98.66
2016-12-13T12:31:14.903Z,98
2016-12-13T12:32:23.582Z,98
2016-12-13T12:33:32.265Z,97.91
2016-12-13T12:34:40.950Z,97.91
2016-12-13T12:35:49.631Z,97.72
2016-12-13T12:36:58.315Z,96.86
2016-12-13T12:38:07.341Z,96.63
2016-12-13T12:39:16.026Z,97.48
2016-12-13T12:40:24.711Z,96.73
2016-12-13T12:41:33.400Z,96.63
2016-12-13T12:42:42.093Z,96.06
2016-12-13T12:43:50.774Z,95.5
2016-12-13T12:44:59.455Z,95.5
2016-12-13T12:46:08.147Z,95.12
2016-12-13T12:47:16.839Z,93.61
2016-12-13T12:48:25.554Z,93.51
2016-12-13T12:49:34.235Z,93.32
2016-12-13T12:50:42.924Z,93.51
2016-12-13T12:51:51.612Z,94.93
2016-12-13T12:53:00.297Z,95.12
2016-12-13T12:54:08.985Z,94.84
2016-12-13T12:55:17.672Z,94.56
2016-12-13T12:56:26.361Z,93.42
2016-12-13T12:57:35.363Z,94.51
2016-12-13T12:58:44.044Z,95.07
2016-12-13T12:59:52.735Z,95.17
2016-12-13T13:01:01.424Z,95.45
2016-12-13T13:02:10.113Z,94.98
2016-12-13T13:03:18.799Z,95.36
2016-12-13T13:04:27.487Z,95.26
2016-12-13T13:05:36.171Z,95.17
2016-12-13T13:06:44.860Z,95.17
2016-12-13T13:07:53.549Z,95.45
2016-12-13T13:09:02.250Z,96.3
2016-12-13T13:10:10.992Z,97.39
2016-12-13T13:11:19.685Z,97.58
2016-12-13T13:12:28.367Z,98.85
2016-12-13T13:13:37.053Z,99.32
2016-12-13T13:14:45.742Z,98.71
2016-12-13T13:15:54.429Z,98.05
2016-12-13T13:17:03.123Z,96.68
2016-12-13T13:18:12.128Z,96.01
2016-12-13T13:19:20.816Z,96.96
2016-12-13T13:20:29.500Z,97.15
2016-12-13T13:21:38.183Z,97.43
2016-12-13T13:22:46.870Z,98.57
2016-12-13T13:23:55.563Z,98.47
2016-12-13T13:25:04.254Z,99.32
2016-12-13T13:26:12.939Z,99.98
2016-12-13T13:27:21.620Z,99.99
2016-12-13T13:28:30.308Z,99.99
2016-12-13T13:29:38.992Z,99.99
2016-12-13T13:30:47.680Z,99.99
2016-12-13T13:31:56.363Z,99.99
2016-12-13T13:33:05.054Z,99.99
2016-12-13T13:34:13.742Z,99.99
2016-12-13T13:35:22.433Z,99.99
2016-12-13T13:36:31.121Z,99.99
2016-12-13T13:37:39.837Z,99.99
2016-12-13T13:38:49.487Z,99.99
2016-12-13T13:39:58.170Z,99.99
2016-12-13T13:41:06.868Z,99.99
2016-12-13T13:42:15.553Z,99.99
2016-12-13T13:43:24.236Z,99.99
2016-12-13T13:44:33.002Z,99.99
2016-12-13T13:45:41.687Z,99.99
2016-12-13T13:46:50.405Z,99.94
2016-12-13T13:47:59.100Z,99.99
2016-12-13T13:49:07.787Z,99.75
2016-12-13T13:50:16.819Z,99.99
2016-12-13T13:51:25.504Z,99.99
2016-12-13T13:52:34.219Z,99.99
2016-12-13T13:53:42.906Z,99.99
2016-12-13T13:54:51.597Z,99.99
2016-12-13T13:56:00.387Z,99.84
2016-12-13T13:57:09.072Z,99.56
2016-12-13T13:58:17.759Z,99.27
2016-12-13T13:59:26.441Z,99.37
2016-12-13T14:00:35.146Z,99.08
2016-12-13T14:01:43.881Z,99.37
2016-12-13T14:02:52.571Z,99.94
2016-12-13T14:04:01.258Z,99.99
2016-12-13T14:05:09.940Z,99.94
2016-12-13T14:06:18.631Z,99.65
2016-12-13T14:07:27.366Z,99.18
2016-12-13T14:08:36.051Z,98.99
2016-12-13T14:09:44.735Z,98.9
2016-12-13T14:10:53.419Z,97.58
2016-12-13T14:12:02.101Z,97.86
2016-12-13T14:13:10.841Z,98.14
2016-12-13T14:14:19.540Z,97.96
2016-12-13T14:15:28.230Z,98.33
2016-12-13T14:16:36.921Z,99.46
2016-12-13T14:17:45.608Z,99.08
2016-12-13T14:18:54.348Z,99.99
2016-12-13T14:20:03.035Z,99.99
2016-12-13T14:21:11.727Z,99.99
2016-12-13T14:22:20.437Z,99.94
2016-12-13T14:23:29.119Z,99.37
2016-12-13T14:24:37.802Z,98.99
2016-12-13T14:25:46.486Z,98.05
2016-12-13T14:26:55.173Z,98.05
2016-12-13T14:28:03.866Z,98.99
2016-12-13T14:29:12.551Z,98.71
2016-12-13T14:30:21.236Z,99.37
2016-12-13T14:31:29.924Z,98.61
2016-12-13T14:32:38.610Z,99.37
2016-12-13T14:33:47.295Z,98.99
2016-12-13T14:34:55.986Z,98.8
2016-12-13T14:36:04.677Z,99.46
2016-12-13T14:37:13.357Z,99.94
2016-12-13T14:38:22.046Z,99.65
2016-12-13T14:39:30.759Z,99.94
2016-12-13T14:40:39.446Z,99.94
2016-12-13T14:41:48.794Z,99.18
2016-12-13T14:42:57.480Z,98.71
2016-12-13T14:44:06.178Z,98.71
2016-12-13T14:45:14.875Z,98.8
2016-12-13T14:46:23.571Z,98.9
2016-12-13T14:47:32.266Z,99.46
2016-12-13T14:48:40.960Z,99.08